Terminal Aerodrome Forecast
Issued by NWS

Current Version | Previous Version | Text Only | Print | Product List | Glossary On
Versions: 1 2 3 4 5 6 7 8 9 10 11 12 13 14 15 16 17 18 19 20 21 22 23 24 25 26 27 28 29 30
000
FTUS41 KOKX 201305 AAA
TAFGON
TAF AMD
KGON 201305Z 2013/2112 32011G18KT P6SM SKC
     FM201600 29011G18KT P6SM FEW050 FEW250
     FM201800 27010G17KT P6SM FEW050
     FM202200 28008KT P6SM SKC
     FM210200 VRB03KT P6SM SKC=

USA.gov is the U.S. government's official web portal to all federal, state and local government web resources and services.